Time;durP1;ratioP1;P1;durP2;ratioP2;P2;SDS_P1;SDS_P2;PMS_P1;PMS_P2;Temp;Humidity;BMP_temperature;BMP_pressure;BME280_temperature;BME280_humidity;BME280_pressure;Samples;Min_cycle;Max_cycle;Signal;HPM_P1;HPM_P2
2021/10/03 00:00:08;;;;;;;3.70;1.63;;;;;;;-145.50;100.00;65435.88;4985614;28;20046;-64
2021/10/03 00:03:35;;;;;;;;;;;;;;;-145.50;100.00;65435.88;4989706;28;20042;-64
2021/10/03 00:07:00;;;;;;;5.47;1.65;;;;;;;-145.50;100.00;65435.88;4995296;28;20370;-62
2021/10/03 00:09:48;;;;;;;5.07;1.90;;;;;;;-145.50;100.00;65435.88;4985432;28;20133;-64
2021/10/03 00:12:37;;;;;;;3.95;1.80;;;;;;;-145.50;100.00;65435.88;4987738;28;20280;-64
2021/10/03 00:15:25;;;;;;;4.00;1.90;;;;;;;-145.50;100.00;65435.88;4986083;28;20051;-64
2021/10/03 00:18:31;;;;;;;;;;;;;;;-145.50;100.00;65435.88;5001388;28;20068;-64
2021/10/03 00:21:19;;;;;;;4.90;1.80;;;;;;;-145.50;100.00;65435.88;4989312;28;19928;-60
2021/10/03 00:24:07;;;;;;;3.97;1.73;;;;;;;-145.50;100.00;65435.88;4996387;28;20404;-63
2021/10/03 00:26:55;;;;;;;3.20;1.80;;;;;;;-145.50;100.00;65435.88;5005956;28;20049;-64
2021/10/03 00:29:42;;;;;;;4.77;1.80;;;;;;;-145.50;100.00;65435.88;4990762;28;20046;-63
2021/10/03 00:32:36;;;;;;;4.68;2.30;;;;;;;-145.50;100.00;65435.88;4994477;28;20283;-63
2021/10/03 00:35:24;;;;;;;5.03;1.80;;;;;;;-145.50;100.00;65435.88;4999028;28;20043;-63
2021/10/03 00:38:11;;;;;;;5.85;1.80;;;;;;;-145.50;100.00;65435.88;4997129;28;20836;-63
2021/10/03 00:41:00;;;;;;;4.35;2.35;;;;;;;-145.50;100.00;65435.88;4992270;28;20057;-63
2021/10/03 00:43:47;;;;;;;4.55;1.55;;;;;;;-145.50;100.00;65435.88;4987078;28;20062;-64
2021/10/03 00:46:35;;;;;;;5.18;1.63;;;;;;;-145.50;100.00;65435.88;4997461;28;20503;-63
2021/10/03 00:49:23;;;;;;;2.92;1.52;;;;;;;-145.50;100.00;65435.88;4990912;28;20487;-60
2021/10/03 00:52:10;;;;;;;6.00;1.70;;;;;;;-145.50;100.00;65435.88;4996519;28;20056;-64
2021/10/03 00:54:57;;;;;;;3.15;1.58;;;;;;;-145.50;100.00;65435.88;4988080;28;20583;-62
2021/10/03 00:57:46;;;;;;;8.55;2.22;;;;;;;-145.50;100.00;65435.88;4991847;28;20046;-64
2021/10/03 01:00:36;;;;;;;2.47;1.50;;;;;;;-145.50;100.00;65435.88;4999500;28;20049;-63
2021/10/03 01:03:24;;;;;;;7.25;1.88;;;;;;;-145.50;100.00;65435.88;4996282;28;20149;-64
2021/10/03 01:06:11;;;;;;;;;;;;;;;-145.50;100.00;65435.88;4985949;28;20058;-64
2021/10/03 01:08:58;;;;;;;5.70;1.58;;;;;;;-145.50;100.00;65435.88;4992597;28;20283;-64
2021/10/03 01:11:46;;;;;;;6.43;1.60;;;;;;;-145.50;100.00;65435.88;4984726;28;20050;-64
2021/10/03 01:14:33;;;;;;;3.38;1.40;;;;;;;-145.50;100.00;65435.88;4994699;28;20085;-64
2021/10/03 01:17:20;;;;;;;4.38;1.63;;;;;;;-145.50;100.00;65435.88;4999983;28;20052;-63
2021/10/03 01:20:07;;;;;;;3.38;1.60;;;;;;;-145.50;100.00;65435.88;4992456;28;20558;-64
2021/10/03 01:22:55;;;;;;;4.50;1.70;;;;;;;-145.50;100.00;65435.88;4993387;28;20062;-64
2021/10/03 01:25:44;;;;;;;5.43;1.40;;;;;;;-145.50;100.00;65435.88;4994103;28;20046;-64
2021/10/03 01:28:31;;;;;;;3.25;1.48;;;;;;;-145.50;100.00;65435.88;4996360;28;20043;-64
2021/10/03 01:31:27;;;;;;;3.83;1.60;;;;;;;-145.50;100.00;65435.88;5004904;28;20391;-64
2021/10/03 01:34:14;;;;;;;3.80;1.52;;;;;;;-145.50;100.00;65435.88;4994330;28;20054;-64
2021/10/03 01:37:01;;;;;;;4.80;1.48;;;;;;;-145.50;100.00;65435.88;4991838;28;20061;-64
2021/10/03 01:39:49;;;;;;;3.80;1.75;;;;;;;-145.50;100.00;65435.88;4988679;28;20050;-64
2021/10/03 01:42:37;;;;;;;2.38;1.40;;;;;;;-145.50;100.00;65435.88;4990049;28;20074;-65
2021/10/03 01:45:10;;;;;;;3.50;1.42;;;;;;;-145.50;100.00;65435.88;5000290;28;20038;-65
2021/10/03 01:48:20;;;;;;;5.68;1.60;;;;;;;-145.50;100.00;65435.88;4989060;28;20503;-64
2021/10/03 01:52:11;;;;;;;4.28;1.80;;;;;;;-145.50;100.00;65435.88;4991700;28;20487;-65
2021/10/03 01:55:37;;;;;;;4.50;1.80;;;;;;;-145.50;100.00;65435.88;4998942;28;20132;-65
2021/10/03 01:59:04;;;;;;;4.22;1.70;;;;;;;-145.50;100.00;65435.88;4995834;28;20054;-65
2021/10/03 02:02:30;;;;;;;3.45;1.70;;;;;;;-145.50;100.00;65435.88;4994511;28;20054;-64
2021/10/03 02:05:55;;;;;;;4.43;1.50;;;;;;;-145.50;100.00;65435.88;4993156;28;20487;-64
2021/10/03 02:09:23;;;;;;;2.05;1.20;;;;;;;-145.50;100.00;65435.88;5001917;28;20054;-64
2021/10/03 02:12:49;;;;;;;2.17;1.50;;;;;;;-145.50;100.00;65435.88;4999663;28;20085;-65
2021/10/03 02:16:14;;;;;;;3.40;1.38;;;;;;;-145.50;100.00;65435.88;4993787;28;20498;-64
2021/10/03 02:19:42;;;;;;;3.83;1.33;;;;;;;-145.50;100.00;65435.88;5009501;28;20053;-65
2021/10/03 02:23:09;;;;;;;3.90;1.65;;;;;;;-145.50;100.00;65435.88;4991506;28;20046;-64
2021/10/03 02:26:35;;;;;;;3.10;1.38;;;;;;;-145.50;100.00;65435.88;4987398;28;20042;-63
2021/10/03 02:30:00;;;;;;;2.75;1.20;;;;;;;-145.50;100.00;65435.88;4995771;28;20054;-64
2021/10/03 02:33:26;;;;;;;2.83;1.30;;;;;;;-145.50;100.00;65435.88;4998759;28;20431;-64
2021/10/03 02:36:52;;;;;;;4.60;1.30;;;;;;;-145.50;100.00;65435.88;4992247;28;20062;-65
2021/10/03 02:40:18;;;;;;;2.55;1.25;;;;;;;-145.50;100.00;65435.88;4994962;28;20054;-64
2021/10/03 02:43:44;;;;;;;2.13;1.05;;;;;;;-145.50;100.00;65435.88;4987472;28;20588;-64
2021/10/03 02:47:12;;;;;;;4.60;1.30;;;;;;;-145.50;100.00;65435.88;4988007;28;20046;-65
2021/10/03 02:50:39;;;;;;;2.88;1.13;;;;;;;-145.50;100.00;65435.88;4988393;28;20060;-64
2021/10/03 02:54:04;;;;;;;2.28;1.10;;;;;;;-145.50;100.00;65435.88;4994033;28;20050;-65
2021/10/03 02:57:29;;;;;;;1.13;0.98;;;;;;;-145.50;100.00;65435.88;4997166;28;20471;-64
2021/10/03 03:00:55;;;;;;;1.42;0.98;;;;;;;-145.50;100.00;65435.88;4992895;28;20056;-64
2021/10/03 03:04:20;;;;;;;1.20;0.80;;;;;;;-145.50;100.00;65435.88;4991176;28;20108;-64
2021/10/03 03:07:45;;;;;;;3.75;1.02;;;;;;;-145.50;100.00;65435.88;4986003;28;20042;-64
2021/10/03 03:10:43;;;;;;;1.73;0.90;;;;;;;-145.50;100.00;65435.88;5004196;28;20053;-65
2021/10/03 03:14:10;;;;;;;2.63;0.93;;;;;;;-145.50;100.00;65435.88;4986909;28;20054;-64
2021/10/03 03:17:45;;;;;;;0.88;0.73;;;;;;;-145.50;100.00;65435.88;4981369;28;20053;-71
2021/10/03 03:21:10;;;;;;;2.65;0.90;;;;;;;-145.50;100.00;65435.88;4990502;28;20055;-65
2021/10/03 03:23:59;;;;;;;1.58;0.90;;;;;;;-145.50;100.00;65435.88;4990931;28;20503;-64
2021/10/03 03:27:24;;;;;;;2.00;0.95;;;;;;;-145.50;100.00;65435.88;5000604;28;20049;-65
2021/10/03 03:30:49;;;;;;;1.27;0.90;;;;;;;-145.50;100.00;65435.88;4979696;28;20507;-65
2021/10/03 03:33:41;;;;;;;2.47;1.00;;;;;;;-145.50;100.00;65435.88;4997870;28;20481;-64
2021/10/03 03:36:58;;;;;;;3.08;1.48;;;;;;;-145.50;100.00;65435.88;4995905;28;20060;-65
2021/10/03 03:40:24;;;;;;;2.27;1.40;;;;;;;-145.50;100.00;65435.88;4990143;28;20056;-65
2021/10/03 03:43:49;;;;;;;2.63;1.40;;;;;;;-145.50;100.00;65435.88;4987018;28;20551;-65
2021/10/03 03:47:14;;;;;;;3.13;1.30;;;;;;;-145.50;100.00;65435.88;4989615;28;20093;-65
2021/10/03 03:50:40;;;;;;;3.10;1.67;;;;;;;-145.50;100.00;65435.88;4993748;28;20049;-65
2021/10/03 03:54:05;;;;;;;4.38;1.50;;;;;;;-145.50;100.00;65435.88;5001759;28;20755;-65
2021/10/03 03:57:17;;;;;;;6.72;1.60;;;;;;;-145.50;100.00;65435.88;4986982;28;20057;-64
2021/10/03 04:00:41;;;;;;;4.50;1.33;;;;;;;-145.50;100.00;65435.88;4993849;28;20429;-65
2021/10/03 04:03:56;;;;;;;1.20;0.80;;;;;;;-145.50;100.00;65435.88;4999910;28;20139;-66
2021/10/03 04:07:23;;;;;;;4.30;0.68;;;;;;;-145.50;100.00;65435.88;4999246;28;20065;-65
2021/10/03 04:09:50;;;;;;;1.45;0.60;;;;;;;-145.50;100.00;65435.88;4986514;28;20051;-65
2021/10/03 04:12:16;;;;;;;4.18;0.80;;;;;;;-145.50;100.00;65435.88;5000039;28;20148;-66
2021/10/03 04:14:43;;;;;;;5.38;0.80;;;;;;;-145.50;100.00;65435.88;5001657;28;20495;-66
2021/10/03 04:17:09;;;;;;;1.85;0.50;;;;;;;-145.50;100.00;65435.88;5002407;28;20123;-66
2021/10/03 04:19:36;;;;;;;3.40;0.60;;;;;;;-145.50;100.00;65435.88;4994415;28;20045;-65
2021/10/03 04:22:03;;;;;;;3.42;0.70;;;;;;;-145.50;100.00;65435.88;4998693;28;20460;-65
2021/10/03 04:24:29;;;;;;;3.10;0.90;;;;;;;-145.50;100.00;65435.88;4997214;28;20054;-65
2021/10/03 04:26:56;;;;;;;2.45;0.80;;;;;;;-145.50;100.00;65435.88;4994708;28;20038;-65
2021/10/03 04:29:22;;;;;;;1.63;0.82;;;;;;;-145.50;100.00;65435.88;4996487;28;20050;-66
2021/10/03 04:31:48;;;;;;;1.60;0.85;;;;;;;-145.50;100.00;65435.88;4989888;28;20068;-65
2021/10/03 04:34:15;;;;;;;2.30;0.93;;;;;;;-145.50;100.00;65435.88;4993106;28;20062;-66
2021/10/03 04:37:29;;;;;;;2.88;0.80;;;;;;;-145.50;100.00;65435.88;4989880;28;20045;-65
2021/10/03 04:40:41;;;;;;;1.98;0.70;;;;;;;-145.50;100.00;65435.88;4998141;28;20050;-65
2021/10/03 04:44:01;;;;;;;1.30;0.57;;;;;;;-145.50;100.00;65435.88;4991765;28;20073;-65
2021/10/03 04:47:28;;;;;;;1.13;0.65;;;;;;;-145.50;100.00;65435.88;4994336;28;20123;-65
2021/10/03 04:50:53;;;;;;;0.95;0.55;;;;;;;-145.50;100.00;65435.88;4988229;28;20050;-66
2021/10/03 04:53:20;;;;;;;2.67;0.50;;;;;;;-145.50;100.00;65435.88;4993373;28;20510;-65
2021/10/03 04:56:45;;;;;;;0.30;0.30;;;;;;;-145.50;100.00;65435.88;5000220;28;20059;-65
2021/10/03 05:00:10;;;;;;;2.55;0.52;;;;;;;-145.50;100.00;65435.88;4989094;28;20046;-65
2021/10/03 05:03:36;;;;;;;0.95;0.52;;;;;;;-145.50;100.00;65435.88;4988761;28;20042;-65
2021/10/03 05:07:01;;;;;;;1.70;0.50;;;;;;;-145.50;100.00;65435.88;4999250;28;20088;-65
2021/10/03 05:10:26;;;;;;;1.75;0.40;;;;;;;-145.50;100.00;65435.88;4997063;28;20057;-65
2021/10/03 05:13:44;;;;;;;2.38;0.68;;;;;;;-145.50;100.00;65435.88;4996115;28;20056;-65
2021/10/03 05:17:09;;;;;;;3.35;1.05;;;;;;;-145.50;100.00;65435.88;4993207;28;20157;-65
2021/10/03 05:20:30;;;;;;;1.95;0.60;;;;;;;-145.50;100.00;65435.88;4995097;28;20490;-65
2021/10/03 05:23:55;;;;;;;3.05;0.70;;;;;;;-145.50;100.00;65435.88;4993713;28;20054;-65
2021/10/03 05:27:20;;;;;;;2.20;0.95;;;;;;;-145.50;100.00;65435.88;5014587;28;20054;-65
2021/10/03 05:30:15;;;;;;;4.93;0.95;;;;;;;-145.50;100.00;65435.88;4984907;28;20475;-65
2021/10/03 05:33:32;;;;;;;2.92;1.17;;;;;;;-145.50;100.00;65435.88;4994887;28;20515;-65
2021/10/03 05:36:27;;;;;;;2.13;0.70;;;;;;;-145.50;100.00;65435.88;5003708;28;20590;-65
2021/10/03 05:39:52;;;;;;;3.05;0.80;;;;;;;-145.50;100.00;65435.88;4988987;28;20065;-65
2021/10/03 05:43:17;;;;;;;1.83;0.70;;;;;;;-145.50;100.00;65435.88;4997198;28;20054;-65
2021/10/03 05:46:42;;;;;;;2.38;0.60;;;;;;;-145.50;100.00;65435.88;4985571;28;20046;-65
2021/10/03 05:50:03;;;;;;;2.22;0.88;;;;;;;-145.50;100.00;65435.88;5001841;28;20053;-65
2021/10/03 05:53:29;;;;;;;3.72;0.85;;;;;;;-145.50;100.00;65435.88;4989577;28;20053;-65
2021/10/03 05:56:53;;;;;;;1.58;0.80;;;;;;;-145.50;100.00;65435.88;4989829;28;20049;-65
2021/10/03 06:00:18;;;;;;;7.32;0.80;;;;;;;-145.50;100.00;65435.88;4988795;28;20503;-65
2021/10/03 06:03:05;;;;;;;2.47;0.80;;;;;;;-145.50;100.00;65435.88;4989553;28;20065;-65
2021/10/03 06:06:30;;;;;;;2.20;1.00;;;;;;;-145.50;100.00;65435.88;4992074;28;20607;-65
2021/10/03 06:09:55;;;;;;;4.93;1.00;;;;;;;-145.50;100.00;65435.88;4984481;28;20042;-66
2021/10/03 06:13:07;;;;;;;3.60;1.10;;;;;;;-145.50;100.00;65435.88;4994492;28;20050;-66
2021/10/03 06:16:01;;;;;;;3.30;1.00;;;;;;;-145.50;100.00;65435.88;4993793;28;20096;-65
2021/10/03 06:19:26;;;;;;;3.50;1.00;;;;;;;-145.50;100.00;65435.88;4998677;28;20089;-65
2021/10/03 06:22:26;;;;;;;3.90;0.85;;;;;;;-145.50;100.00;65435.88;4995430;28;20535;-65
2021/10/03 06:25:51;;;;;;;2.22;1.17;;;;;;;-145.50;100.00;65435.88;4995062;28;20518;-65
2021/10/03 06:28:52;;;;;;;3.38;1.48;;;;;;;-145.50;100.00;65435.88;4991869;28;20061;-65
2021/10/03 06:32:07;;;;;;;3.15;0.90;;;;;;;-145.50;100.00;65435.88;4987440;28;20054;-65
2021/10/03 06:35:32;;;;;;;4.10;1.30;;;;;;;-145.50;100.00;65435.88;5003816;28;20295;-65
2021/10/03 06:38:57;;;;;;;4.57;1.42;;;;;;;-145.50;100.00;65435.88;4994690;28;20038;-65
2021/10/03 06:42:06;;;;;;;3.20;1.00;;;;;;;-145.50;100.00;65435.88;4994365;28;20058;-65
2021/10/03 06:44:57;;;;;;;4.07;1.33;;;;;;;-145.50;100.00;65435.88;4993028;28;20052;-65
2021/10/03 06:48:01;;;;;;;3.00;1.38;;;;;;;-145.50;100.00;65435.88;4983037;28;20563;-65
2021/10/03 06:51:26;;;;;;;5.70;1.50;;;;;;;-145.50;100.00;65435.88;4988855;28;20065;-65
2021/10/03 06:54:14;;;;;;;3.00;1.40;;;;;;;-145.50;100.00;65435.88;4986872;28;20053;-67
2021/10/03 06:57:39;;;;;;;2.22;1.20;;;;;;;-145.50;100.00;65435.88;4992948;28;20440;-65
2021/10/03 07:01:05;;;;;;;3.00;1.20;;;;;;;-145.50;100.00;65435.88;4987676;28;20054;-65
2021/10/03 07:04:07;;;;;;;2.38;1.10;;;;;;;-145.50;100.00;65435.88;4986037;28;20077;-65
2021/10/03 07:07:32;;;;;;;5.00;1.35;;;;;;;-145.50;100.00;65435.88;4987955;28;20328;-65
2021/10/03 07:10:57;;;;;;;2.05;1.40;;;;;;;-145.50;100.00;65435.88;4991776;28;20061;-65
2021/10/03 07:13:53;;;;;;;3.97;1.40;;;;;;;-145.50;100.00;65435.88;4991958;28;20132;-65
2021/10/03 07:17:18;;;;;;;2.70;1.50;;;;;;;-145.50;100.00;65435.88;4988456;28;20089;-65
2021/10/03 07:20:38;;;;;;;4.07;1.38;;;;;;;-145.50;100.00;65435.88;4994258;28;20046;-66
2021/10/03 07:23:33;;;;;;;5.60;1.60;;;;;;;-145.50;100.00;65435.88;4990210;28;20301;-65
2021/10/03 07:26:20;;;;;;;4.13;1.42;;;;;;;-145.50;100.00;65435.88;5009314;28;20042;-64
2021/10/03 07:29:09;;;;;;;4.43;1.83;;;;;;;-145.50;100.00;65435.88;4994555;28;20918;-65
2021/10/03 07:32:07;;;;;;;3.60;1.50;;;;;;;-145.50;100.00;65435.88;5004387;28;20057;-65
2021/10/03 07:35:10;;;;;;;2.95;1.60;;;;;;;-145.50;100.00;65435.88;4994420;28;20062;-65
2021/10/03 07:38:08;;;;;;;4.03;1.60;;;;;;;-145.50;100.00;65435.88;5002213;28;20050;-65
2021/10/03 07:41:33;;;;;;;3.70;1.60;;;;;;;-145.50;100.00;65435.88;4992029;28;20065;-65
2021/10/03 07:44:58;;;;;;;2.08;1.10;;;;;;;-145.50;100.00;65435.88;4995288;28;20057;-65
2021/10/03 07:47:46;;;;;;;3.83;1.65;;;;;;;-145.50;100.00;65435.88;4997844;28;20054;-65
2021/10/03 07:50:33;;;;;;;4.38;1.50;;;;;;;-145.50;100.00;65435.88;5002621;28;20054;-65
2021/10/03 07:53:27;;;;;;;2.77;1.40;;;;;;;-145.50;100.00;65435.88;5004067;28;20396;-65
2021/10/03 07:56:19;;;;;;;2.80;1.23;;;;;;;-145.50;100.00;65435.88;4990457;28;20276;-65
2021/10/03 07:59:08;;;;;;;3.33;1.60;;;;;;;-145.50;100.00;65435.88;4993396;28;20053;-65
2021/10/03 08:01:35;;;;;;;3.17;1.50;;;;;;;-145.50;100.00;65435.88;4992781;28;20045;-65
2021/10/03 08:04:03;;;;;;;3.53;1.70;;;;;;;-145.50;100.00;65435.88;4998653;28;20052;-65
2021/10/03 08:06:31;;;;;;;3.55;1.50;;;;;;;-145.50;100.00;65435.88;4996480;28;20054;-65
2021/10/03 08:08:59;;;;;;;3.95;1.73;;;;;;;-145.50;100.00;65435.88;4990997;28;20050;-65
2021/10/03 08:11:26;;;;;;;4.47;1.80;;;;;;;-145.50;100.00;65435.88;4995951;28;20058;-65
2021/10/03 08:13:52;;;;;;;4.90;1.75;;;;;;;-145.50;100.00;65435.88;4996294;28;20060;-65
2021/10/03 08:16:19;;;;;;;2.28;1.30;;;;;;;-145.50;100.00;65435.88;5000199;28;20057;-65
2021/10/03 08:18:47;;;;;;;3.25;1.38;;;;;;;-145.50;100.00;65435.88;4993610;28;20057;-65
2021/10/03 08:21:15;;;;;;;2.65;1.20;;;;;;;-145.50;100.00;65435.88;4999722;28;20140;-65
2021/10/03 08:23:42;;;;;;;2.63;1.00;;;;;;;-145.50;100.00;65435.88;4994517;28;20046;-65
2021/10/03 08:26:10;;;;;;;3.13;1.20;;;;;;;-145.50;100.00;65435.88;4999171;28;20081;-64
2021/10/03 08:28:36;;;;;;;1.98;1.17;;;;;;;-145.50;100.00;65435.88;4999617;28;20372;-65
2021/10/03 08:31:03;;;;;;;2.10;1.45;;;;;;;-145.50;100.00;65435.88;5000439;28;20046;-64
2021/10/03 08:33:50;;;;;;;2.28;1.00;;;;;;;-145.50;100.00;65435.88;5000141;28;20050;-64
2021/10/03 08:36:17;;;;;;;1.65;1.10;;;;;;;-145.50;100.00;65435.88;4992125;28;20054;-64
2021/10/03 08:38:44;;;;;;;3.53;1.15;;;;;;;-145.50;100.00;65435.88;4991298;28;20050;-64
2021/10/03 08:41:11;;;;;;;3.67;0.90;;;;;;;-145.50;100.00;65435.88;4986590;28;20137;-64
2021/10/03 08:43:37;;;;;;;3.63;1.20;;;;;;;-145.50;100.00;65435.88;4993292;28;20053;-64
2021/10/03 08:46:08;;;;;;;2.85;0.80;;;;;;;-145.50;100.00;65435.88;4995094;28;20190;-64
2021/10/03 08:48:35;;;;;;;2.88;0.70;;;;;;;-145.50;100.00;65435.88;5002305;28;20144;-64
2021/10/03 08:51:01;;;;;;;1.65;0.50;;;;;;;-145.50;100.00;65435.88;5000929;28;20054;-65
2021/10/03 08:53:28;;;;;;;1.63;0.50;;;;;;;-145.50;100.00;65435.88;4994830;28;20053;-64
2021/10/03 08:55:56;;;;;;;2.75;0.60;;;;;;;-145.50;100.00;65435.88;4997382;28;20055;-64
2021/10/03 08:58:24;;;;;;;4.13;0.60;;;;;;;-145.50;100.00;65435.88;4997466;28;20042;-64
2021/10/03 09:00:51;;;;;;;1.47;0.60;;;;;;;-145.50;100.00;65435.88;4995338;28;20051;-64
2021/10/03 09:03:18;;;;;;;0.95;0.50;;;;;;;-145.50;100.00;65435.88;4992435;28;20280;-65
2021/10/03 09:05:48;;;;;;;2.15;0.80;;;;;;;-145.50;100.00;65435.88;4984926;28;20050;-64
2021/10/03 09:08:20;;;;;;;1.48;0.55;;;;;;;-145.50;100.00;65435.88;5008364;28;20527;-64
2021/10/03 09:10:51;;;;;;;3.45;1.00;;;;;;;-145.50;100.00;65435.88;4992136;28;20050;-64
2021/10/03 09:13:19;;;;;;;1.40;0.80;;;;;;;-145.50;100.00;65435.88;4999444;28;20050;-64
2021/10/03 09:16:02;;;;;;;5.38;2.67;;;;;;;-145.50;100.00;65435.88;4991547;28;20104;-64
2021/10/03 09:18:47;;;;;;;1.48;1.02;;;;;;;-145.50;100.00;65435.88;4988819;28;20049;-65
2021/10/03 09:21:38;;;;;;;3.22;0.85;;;;;;;-145.50;100.00;65435.88;4984636;28;20249;-64
2021/10/03 09:24:21;;;;;;;1.15;0.70;;;;;;;-145.50;100.00;65435.88;4995217;28;20049;-65
2021/10/03 09:26:58;;;;;;;2.28;0.80;;;;;;;-145.50;100.00;65435.88;4992841;28;20052;-64
2021/10/03 09:29:32;;;;;;;1.80;0.90;;;;;;;-145.50;100.00;65435.88;4993686;28;20463;-65
2021/10/03 09:32:17;;;;;;;2.15;0.85;;;;;;;-145.50;100.00;65435.88;4988772;28;20046;-64
2021/10/03 09:34:50;;;;;;;1.75;1.10;;;;;;;-145.50;100.00;65435.88;4986354;28;20066;-65
2021/10/03 09:37:28;;;;;;;1.30;0.80;;;;;;;-145.50;100.00;65435.88;5007825;28;20058;-65
2021/10/03 09:40:08;;;;;;;2.05;0.60;;;;;;;-145.50;100.00;65435.88;4989796;28;20487;-64
2021/10/03 09:42:35;;;;;;;1.58;0.70;;;;;;;-145.50;100.00;65435.88;4998830;28;20402;-64
2021/10/03 09:45:07;;;;;;;3.95;2.72;;;;;;;-145.50;100.00;65435.88;4987554;28;20054;-64
2021/10/03 09:47:35;;;;;;;4.10;1.55;;;;;;;-145.50;100.00;65435.88;4993755;28;20046;-64
2021/10/03 09:50:04;;;;;;;3.53;1.30;;;;;;;-145.50;100.00;65435.88;4988511;28;20393;-64
2021/10/03 09:52:33;;;;;;;1.17;0.90;;;;;;;-145.50;100.00;65435.88;4992089;28;20050;-65
2021/10/03 09:55:03;;;;;;;2.55;0.80;;;;;;;-145.50;100.00;65435.88;4996512;28;20072;-64
2021/10/03 09:57:30;;;;;;;2.38;0.70;;;;;;;-145.50;100.00;65435.88;4991636;28;20454;-64
2021/10/03 09:59:57;;;;;;;2.15;0.60;;;;;;;-145.50;100.00;65435.88;4992999;28;20047;-64
2021/10/03 10:02:24;;;;;;;2.60;0.80;;;;;;;-145.50;100.00;65435.88;4993946;28;20080;-64
2021/10/03 10:04:50;;;;;;;0.63;0.47;;;;;;;-145.50;100.00;65435.88;5000127;28;20483;-64
2021/10/03 10:07:17;;;;;;;0.95;0.60;;;;;;;-145.50;100.00;65435.88;4997439;28;20054;-64
2021/10/03 10:09:45;;;;;;;1.70;1.02;;;;;;;-145.50;100.00;65435.88;4989242;28;20499;-64
2021/10/03 10:12:18;;;;;;;2.28;1.15;;;;;;;-145.50;100.00;65435.88;4985186;28;20499;-64
2021/10/03 10:14:55;;;;;;;2.08;1.40;;;;;;;-145.50;100.00;65435.88;5000680;28;20057;-64
2021/10/03 10:17:32;;;;;;;1.17;0.82;;;;;;;-145.50;100.00;65435.88;4995612;28;20511;-64
2021/10/03 10:20:00;;;;;;;1.15;0.80;;;;;;;-145.50;100.00;65435.88;4997555;28;20483;-64
2021/10/03 10:22:31;;;;;;;0.65;0.50;;;;;;;-145.50;100.00;65435.88;4997109;28;20480;-64
2021/10/03 10:24:57;;;;;;;1.17;0.70;;;;;;;-145.50;100.00;65435.88;4987993;28;20800;-64
2021/10/03 10:27:30;;;;;;;0.73;0.60;;;;;;;-145.50;100.00;65435.88;4994573;28;20139;-64
2021/10/03 10:29:58;;;;;;;1.75;0.70;;;;;;;-145.50;100.00;65435.88;4985664;28;20145;-64
2021/10/03 10:32:28;;;;;;;2.55;0.47;;;;;;;-145.50;100.00;65435.88;4996817;28;20046;-64
2021/10/03 10:35:09;;;;;;;1.00;0.50;;;;;;;-145.50;100.00;65435.88;4997161;28;20391;-65
2021/10/03 10:37:55;;;;;;;0.70;0.55;;;;;;;-145.50;100.00;65435.88;4992929;28;20479;-64
2021/10/03 10:40:21;;;;;;;1.05;0.60;;;;;;;-145.50;100.00;65435.88;4992456;28;20050;-64
2021/10/03 10:42:55;;;;;;;0.93;0.70;;;;;;;-145.50;100.00;65435.88;4988213;28;20112;-64
2021/10/03 10:45:27;;;;;;;0.60;0.60;;;;;;;-145.50;100.00;65435.88;4992215;28;20483;-64
2021/10/03 10:48:08;;;;;;;0.90;0.70;;;;;;;-145.50;100.00;65435.88;4988440;28;20119;-64
2021/10/03 10:50:40;;;;;;;2.78;0.80;;;;;;;-145.50;100.00;65435.88;5002976;28;20783;-64
2021/10/03 10:53:20;;;;;;;1.17;0.98;;;;;;;-145.50;100.00;65435.88;4983494;28;20738;-64
2021/10/03 10:56:10;;;;;;;0.80;0.60;;;;;;;-145.50;100.00;65435.88;4991055;28;20050;-64
2021/10/03 10:58:50;;;;;;;1.27;0.80;;;;;;;-145.50;100.00;65435.88;4987387;28;20049;-64
2021/10/03 11:01:40;;;;;;;0.90;0.65;;;;;;;-145.50;100.00;65435.88;4995020;28;20054;-64
2021/10/03 11:04:28;;;;;;;0.70;0.70;;;;;;;-145.50;100.00;65435.88;4982181;28;20069;-64
2021/10/03 11:06:56;;;;;;;0.80;0.70;;;;;;;-145.50;100.00;65435.88;4985118;28;20104;-64
2021/10/03 11:09:23;;;;;;;1.77;0.90;;;;;;;-145.50;100.00;65435.88;4984866;28;20377;-64
2021/10/03 11:12:02;;;;;;;1.23;1.10;;;;;;;-145.50;100.00;65435.88;4993667;28;20061;-64
2021/10/03 11:14:28;;;;;;;1.38;1.00;;;;;;;-145.50;100.00;65435.88;4991403;28;20444;-66
2021/10/03 11:17:01;;;;;;;1.58;1.20;;;;;;;-145.50;100.00;65435.88;4992845;28;20049;-64
2021/10/03 11:19:46;;;;;;;2.33;1.40;;;;;;;-145.50;100.00;65435.88;4994322;28;20077;-64
2021/10/03 11:22:22;;;;;;;1.50;1.40;;;;;;;-145.50;100.00;65435.88;4980170;28;20140;-64
2021/10/03 11:24:52;;;;;;;1.40;1.05;;;;;;;-145.50;100.00;65435.88;4997890;28;20057;-64
2021/10/03 11:27:26;;;;;;;1.40;1.30;;;;;;;-145.50;100.00;65435.88;4988735;28;20420;-64
2021/10/03 11:29:55;;;;;;;1.70;1.60;;;;;;;-145.50;100.00;65435.88;4994758;28;20046;-64
2021/10/03 11:32:24;;;;;;;2.00;1.80;;;;;;;-145.50;100.00;65435.88;4981108;28;20054;-64
2021/10/03 11:34:53;;;;;;;2.10;1.80;;;;;;;-145.50;100.00;65435.88;4987896;28;20042;-64
2021/10/03 11:37:29;;;;;;;2.72;1.90;;;;;;;-145.50;100.00;65435.88;4998425;28;20068;-64
2021/10/03 11:40:06;;;;;;;1.85;1.65;;;;;;;-145.50;100.00;65435.88;4987309;28;20238;-64
2021/10/03 11:42:47;;;;;;;2.15;1.70;;;;;;;-145.50;100.00;65435.88;4988918;28;20054;-66
2021/10/03 11:45:29;;;;;;;1.83;1.42;;;;;;;-145.50;100.00;65435.88;4989382;28;20345;-65
2021/10/03 11:47:58;;;;;;;5.43;2.38;;;;;;;-145.50;100.00;65435.88;5001629;28;20053;-63
2021/10/03 11:50:32;;;;;;;3.22;2.08;;;;;;;-145.50;100.00;65435.88;4981238;28;20068;-64
2021/10/03 11:53:19;;;;;;;1.95;1.75;;;;;;;-145.50;100.00;65435.88;4989201;28;20419;-63
2021/10/03 11:55:48;;;;;;;2.15;1.63;;;;;;;-145.50;100.00;65435.88;4985883;28;20057;-64
2021/10/03 11:58:17;;;;;;;2.20;1.85;;;;;;;-145.50;100.00;65435.88;4992612;28;20056;-65
2021/10/03 12:01:02;;;;;;;2.78;1.77;;;;;;;-145.50;100.00;65435.88;4985961;28;20050;-64
2021/10/03 12:03:33;;;;;;;1.90;1.65;;;;;;;-145.50;100.00;65435.88;4991766;28;20108;-64
2021/10/03 12:06:16;;;;;;;1.88;1.40;;;;;;;-145.50;100.00;65435.88;4993555;28;20058;-64
2021/10/03 12:08:42;;;;;;;4.25;1.75;;;;;;;-145.50;100.00;65435.88;4990868;28;20045;-64
2021/10/03 12:11:09;;;;;;;2.30;1.77;;;;;;;-145.50;100.00;65435.88;4995019;28;20076;-64
2021/10/03 12:13:36;;;;;;;1.88;1.70;;;;;;;-145.50;100.00;65435.88;4990860;28;20451;-64
2021/10/03 12:16:05;;;;;;;2.00;1.65;;;;;;;-145.50;100.00;65435.88;4987517;28;20141;-64
2021/10/03 12:18:47;;;;;;;1.83;1.45;;;;;;;-145.50;100.00;65435.88;4992821;28;20081;-65
2021/10/03 12:21:27;;;;;;;1.98;1.20;;;;;;;-145.50;100.00;65435.88;4999128;28;20058;-65
2021/10/03 12:24:03;;;;;;;1.60;1.40;;;;;;;-145.50;100.00;65435.88;4991844;28;20050;-66
2021/10/03 12:26:43;;;;;;;1.55;1.45;;;;;;;-145.50;100.00;65435.88;5017926;28;20141;-65
2021/10/03 12:29:31;;;;;;;1.63;1.50;;;;;;;-145.50;100.00;65435.88;4991093;28;20046;-66
2021/10/03 12:32:11;;;;;;;1.40;1.23;;;;;;;-145.50;100.00;65435.88;4992492;28;21612;-65
2021/10/03 12:34:43;;;;;;;2.20;1.63;;;;;;;-145.50;100.00;65435.88;4997812;28;20045;-65
2021/10/03 12:37:32;;;;;;;1.90;1.50;;;;;;;-145.50;100.00;65435.88;4996748;28;20077;-65
2021/10/03 12:40:00;;;;;;;8.07;1.90;;;;;;;-145.50;100.00;65435.88;5004504;28;20058;-64
2021/10/03 12:42:29;;;;;;;1.85;1.65;;;;;;;-145.50;100.00;65435.88;4987702;28;20050;-64
2021/10/03 12:44:58;;;;;;;2.30;2.10;;;;;;;-145.50;100.00;65435.88;4990339;28;20046;-64
2021/10/03 12:47:25;;;;;;;;;;;;;;;-145.50;100.00;65435.88;4991563;28;20064;-64
2021/10/03 12:49:52;;;;;;;4.82;2.50;;;;;;;-145.50;100.00;65435.88;5008180;28;20277;-64
2021/10/03 12:52:20;;;;;;;5.38;3.30;;;;;;;-145.50;100.00;65435.88;4988108;28;20076;-64
2021/10/03 12:54:47;;;;;;;9.13;4.40;;;;;;;-145.50;100.00;65435.88;5009864;28;20514;-64
2021/10/03 12:57:15;;;;;;;5.47;3.15;;;;;;;-145.50;100.00;65435.88;4993794;28;20287;-64
2021/10/03 12:59:41;;;;;;;;;;;;;;;-145.50;100.00;65435.88;4994017;28;20050;-64